Seekonk, Massachusetts
Current Conditions -  °F | °C
As of 8:51 PM on Saturday 25 Oct 2014 (Local Time) from KPVD Reporting Station
Overcast Overcast  
Wind Chill: 58°   Ceiling: 8000
Heat Index: 58°   Visibility: 10mi
Dew Point: 46°   Wind: 10mph
Humidity: 65%   Direction: 250°WSW
Pressure: 29.6"   Gusts: NA
Location:  41.81°N, 71.34°W
Report Text: KPVD 260051Z 25009KT 10SM BKN080 OVC100 14/08 A2960 RMK AO2 SLP024 T01440078
Loading
Personal Weather Stations






























Interactive Weather Map
Tropical Storm Tracking
New forecast layout! Learn more

10-Day Weather Forecast

Advertisements
Track Severe Weather on mobile